sensor_id;sensor_type;location;lat;lon;timestamp;P1;durP1;ratioP1;P2;durP2;ratioP2
26269;SDS011;15937;50.612;6.656;2024-02-26T00:01:27;2.23;;;1.20;;
26269;SDS011;15937;50.612;6.656;2024-02-26T00:05:29;1.55;;;1.10;;
26269;SDS011;15937;50.612;6.656;2024-02-26T00:09:33;2.42;;;1.20;;
26269;SDS011;15937;50.612;6.656;2024-02-26T00:13:37;2.38;;;1.27;;
26269;SDS011;15937;50.612;6.656;2024-02-26T00:17:39;2.70;;;1.17;;
26269;SDS011;15937;50.612;6.656;2024-02-26T00:21:42;3.45;;;1.20;;
26269;SDS011;15937;50.612;6.656;2024-02-26T00:25:44;1.20;;;1.00;;
26269;SDS011;15937;50.612;6.656;2024-02-26T00:29:47;1.67;;;1.27;;
26269;SDS011;15937;50.612;6.656;2024-02-26T00:33:49;2.47;;;1.10;;
26269;SDS011;15937;50.612;6.656;2024-02-26T00:37:52;1.23;;;1.13;;
26269;SDS011;15937;50.612;6.656;2024-02-26T00:41:54;3.17;;;1.20;;
26269;SDS011;15937;50.612;6.656;2024-02-26T00:45:59;1.70;;;1.25;;
26269;SDS011;15937;50.612;6.656;2024-02-26T00:50:01;1.90;;;1.23;;
26269;SDS011;15937;50.612;6.656;2024-02-26T00:54:03;1.33;;;1.23;;
26269;SDS011;15937;50.612;6.656;2024-02-26T00:58:05;6.87;;;1.50;;
26269;SDS011;15937;50.612;6.656;2024-02-26T01:02:08;2.38;;;1.30;;
26269;SDS011;15937;50.612;6.656;2024-02-26T01:06:10;3.08;;;1.00;;
26269;SDS011;15937;50.612;6.656;2024-02-26T01:10:12;2.70;;;1.50;;
26269;SDS011;15937;50.612;6.656;2024-02-26T01:14:18;2.00;;;1.60;;
26269;SDS011;15937;50.612;6.656;2024-02-26T01:18:20;2.55;;;1.48;;
26269;SDS011;15937;50.612;6.656;2024-02-26T01:22:23;1.88;;;1.50;;
26269;SDS011;15937;50.612;6.656;2024-02-26T01:26:25;2.22;;;1.20;;
26269;SDS011;15937;50.612;6.656;2024-02-26T01:30:29;7.07;;;1.95;;
26269;SDS011;15937;50.612;6.656;2024-02-26T01:34:31;2.95;;;1.65;;
26269;SDS011;15937;50.612;6.656;2024-02-26T01:38:34;2.30;;;1.60;;
26269;SDS011;15937;50.612;6.656;2024-02-26T01:42:39;2.58;;;1.45;;
26269;SDS011;15937;50.612;6.656;2024-02-26T01:46:43;2.10;;;1.50;;
26269;SDS011;15937;50.612;6.656;2024-02-26T01:50:45;2.80;;;1.58;;
26269;SDS011;15937;50.612;6.656;2024-02-26T01:54:48;1.95;;;1.55;;
26269;SDS011;15937;50.612;6.656;2024-02-26T01:58:51;3.50;;;1.60;;
26269;SDS011;15937;50.612;6.656;2024-02-26T02:02:53;5.25;;;1.50;;
26269;SDS011;15937;50.612;6.656;2024-02-26T02:06:57;2.92;;;1.45;;
26269;SDS011;15937;50.612;6.656;2024-02-26T02:11:01;4.30;;;1.67;;
26269;SDS011;15937;50.612;6.656;2024-02-26T02:15:06;3.58;;;1.88;;
26269;SDS011;15937;50.612;6.656;2024-02-26T02:19:09;2.88;;;1.85;;
26269;SDS011;15937;50.612;6.656;2024-02-26T02:23:12;2.03;;;1.45;;
26269;SDS011;15937;50.612;6.656;2024-02-26T02:27:15;2.15;;;1.60;;
26269;SDS011;15937;50.612;6.656;2024-02-26T02:31:18;5.18;;;1.63;;
26269;SDS011;15937;50.612;6.656;2024-02-26T02:35:20;2.47;;;1.77;;
26269;SDS011;15937;50.612;6.656;2024-02-26T02:39:22;2.93;;;1.40;;
26269;SDS011;15937;50.612;6.656;2024-02-26T02:43:24;1.40;;;1.30;;
26269;SDS011;15937;50.612;6.656;2024-02-26T02:47:27;2.05;;;1.20;;
26269;SDS011;15937;50.612;6.656;2024-02-26T02:51:29;2.47;;;1.65;;
26269;SDS011;15937;50.612;6.656;2024-02-26T02:55:31;1.88;;;1.30;;
26269;SDS011;15937;50.612;6.656;2024-02-26T02:59:33;3.67;;;1.52;;
26269;SDS011;15937;50.612;6.656;2024-02-26T03:03:37;1.55;;;1.17;;
26269;SDS011;15937;50.612;6.656;2024-02-26T03:07:38;3.35;;;1.50;;
26269;SDS011;15937;50.612;6.656;2024-02-26T03:11:40;1.60;;;1.48;;
26269;SDS011;15937;50.612;6.656;2024-02-26T03:15:43;2.80;;;1.60;;
26269;SDS011;15937;50.612;6.656;2024-02-26T03:19:48;1.45;;;1.35;;
26269;SDS011;15937;50.612;6.656;2024-02-26T03:23:55;5.95;;;1.63;;
26269;SDS011;15937;50.612;6.656;2024-02-26T03:27:57;1.73;;;1.63;;
26269;SDS011;15937;50.612;6.656;2024-02-26T03:31:59;1.40;;;1.27;;
26269;SDS011;15937;50.612;6.656;2024-02-26T03:36:01;2.33;;;1.20;;
26269;SDS011;15937;50.612;6.656;2024-02-26T03:40:04;3.43;;;1.57;;
26269;SDS011;15937;50.612;6.656;2024-02-26T03:44:06;1.80;;;1.33;;
26269;SDS011;15937;50.612;6.656;2024-02-26T03:48:08;2.15;;;1.38;;
26269;SDS011;15937;50.612;6.656;2024-02-26T03:52:10;6.53;;;1.80;;
26269;SDS011;15937;50.612;6.656;2024-02-26T03:56:13;1.55;;;1.45;;
26269;SDS011;15937;50.612;6.656;2024-02-26T04:00:15;2.37;;;1.37;;
26269;SDS011;15937;50.612;6.656;2024-02-26T04:04:17;1.90;;;1.10;;
26269;SDS011;15937;50.612;6.656;2024-02-26T04:08:19;1.25;;;1.15;;
26269;SDS011;15937;50.612;6.656;2024-02-26T04:12:21;1.00;;;0.97;;
26269;SDS011;15937;50.612;6.656;2024-02-26T04:16:24;2.47;;;1.40;;
26269;SDS011;15937;50.612;6.656;2024-02-26T04:20:27;2.80;;;1.65;;
26269;SDS011;15937;50.612;6.656;2024-02-26T04:24:29;53.47;;;16.88;;
26269;SDS011;15937;50.612;6.656;2024-02-26T04:28:31;4.73;;;3.13;;
26269;SDS011;15937;50.612;6.656;2024-02-26T04:32:35;4.65;;;1.85;;
26269;SDS011;15937;50.612;6.656;2024-02-26T04:36:38;3.87;;;1.67;;
26269;SDS011;15937;50.612;6.656;2024-02-26T04:40:40;4.90;;;4.40;;
26269;SDS011;15937;50.612;6.656;2024-02-26T04:44:42;2.47;;;1.77;;
26269;SDS011;15937;50.612;6.656;2024-02-26T04:48:44;1.67;;;1.50;;
26269;SDS011;15937;50.612;6.656;2024-02-26T04:52:48;1.52;;;1.42;;
26269;SDS011;15937;50.612;6.656;2024-02-26T04:56:50;1.30;;;1.20;;
26269;SDS011;15937;50.612;6.656;2024-02-26T05:00:53;1.27;;;1.10;;
26269;SDS011;15937;50.612;6.656;2024-02-26T05:04:55;1.10;;;1.10;;
26269;SDS011;15937;50.612;6.656;2024-02-26T05:08:57;3.28;;;1.08;;
26269;SDS011;15937;50.612;6.656;2024-02-26T05:12:59;2.85;;;1.27;;
26269;SDS011;15937;50.612;6.656;2024-02-26T05:17:00;3.08;;;1.40;;
26269;SDS011;15937;50.612;6.656;2024-02-26T05:21:02;1.27;;;1.17;;
26269;SDS011;15937;50.612;6.656;2024-02-26T05:25:05;1.10;;;1.08;;
26269;SDS011;15937;50.612;6.656;2024-02-26T05:29:07;3.07;;;1.97;;
26269;SDS011;15937;50.612;6.656;2024-02-26T05:33:10;1.50;;;1.40;;
26269;SDS011;15937;50.612;6.656;2024-02-26T05:37:15;5.07;;;3.13;;
26269;SDS011;15937;50.612;6.656;2024-02-26T05:41:17;4.73;;;2.83;;
26269;SDS011;15937;50.612;6.656;2024-02-26T05:45:24;2.92;;;1.60;;
26269;SDS011;15937;50.612;6.656;2024-02-26T05:49:26;2.00;;;1.38;;
26269;SDS011;15937;50.612;6.656;2024-02-26T05:53:29;2.30;;;1.40;;
26269;SDS011;15937;50.612;6.656;2024-02-26T05:57:31;5.10;;;1.92;;
26269;SDS011;15937;50.612;6.656;2024-02-26T06:01:35;2.47;;;1.80;;
26269;SDS011;15937;50.612;6.656;2024-02-26T06:05:37;2.60;;;2.13;;
26269;SDS011;15937;50.612;6.656;2024-02-26T06:09:39;3.13;;;1.85;;
26269;SDS011;15937;50.612;6.656;2024-02-26T06:13:41;3.65;;;1.73;;
26269;SDS011;15937;50.612;6.656;2024-02-26T06:17:42;4.97;;;1.90;;
26269;SDS011;15937;50.612;6.656;2024-02-26T06:21:45;2.28;;;1.80;;
26269;SDS011;15937;50.612;6.656;2024-02-26T06:25:47;6.82;;;1.60;;
26269;SDS011;15937;50.612;6.656;2024-02-26T06:29:49;4.55;;;2.50;;
26269;SDS011;15937;50.612;6.656;2024-02-26T06:33:55;14.73;;;6.55;;
26269;SDS011;15937;50.612;6.656;2024-02-26T06:37:58;8.02;;;4.38;;
26269;SDS011;15937;50.612;6.656;2024-02-26T06:42:00;8.68;;;3.50;;
26269;SDS011;15937;50.612;6.656;2024-02-26T06:46:03;24.42;;;9.52;;
26269;SDS011;15937;50.612;6.656;2024-02-26T06:50:05;15.50;;;5.30;;
26269;SDS011;15937;50.612;6.656;2024-02-26T06:54:07;6.53;;;3.40;;
26269;SDS011;15937;50.612;6.656;2024-02-26T06:58:11;3.45;;;2.25;;
26269;SDS011;15937;50.612;6.656;2024-02-26T07:02:16;20.38;;;6.68;;
26269;SDS011;15937;50.612;6.656;2024-02-26T07:06:19;6.13;;;2.95;;
26269;SDS011;15937;50.612;6.656;2024-02-26T07:10:22;11.38;;;4.05;;
26269;SDS011;15937;50.612;6.656;2024-02-26T07:14:25;8.85;;;3.15;;
26269;SDS011;15937;50.612;6.656;2024-02-26T07:18:26;5.50;;;2.85;;
26269;SDS011;15937;50.612;6.656;2024-02-26T07:22:30;7.13;;;3.05;;
26269;SDS011;15937;50.612;6.656;2024-02-26T07:26:32;3.95;;;2.97;;
26269;SDS011;15937;50.612;6.656;2024-02-26T07:30:34;4.57;;;2.60;;
26269;SDS011;15937;50.612;6.656;2024-02-26T07:34:36;2.83;;;2.50;;
26269;SDS011;15937;50.612;6.656;2024-02-26T07:38:40;7.22;;;3.60;;
26269;SDS011;15937;50.612;6.656;2024-02-26T07:42:44;5.13;;;3.15;;
26269;SDS011;15937;50.612;6.656;2024-02-26T07:46:46;4.00;;;2.63;;
26269;SDS011;15937;50.612;6.656;2024-02-26T07:50:49;5.30;;;2.83;;
26269;SDS011;15937;50.612;6.656;2024-02-26T07:54:51;5.00;;;3.22;;
26269;SDS011;15937;50.612;6.656;2024-02-26T07:58:53;4.82;;;2.28;;
26269;SDS011;15937;50.612;6.656;2024-02-26T08:02:55;5.27;;;3.20;;
26269;SDS011;15937;50.612;6.656;2024-02-26T08:06:59;4.07;;;2.92;;
26269;SDS011;15937;50.612;6.656;2024-02-26T08:11:01;3.05;;;2.20;;
26269;SDS011;15937;50.612;6.656;2024-02-26T08:15:04;3.37;;;2.73;;
26269;SDS011;15937;50.612;6.656;2024-02-26T08:19:07;9.43;;;3.63;;
26269;SDS011;15937;50.612;6.656;2024-02-26T08:23:12;15.40;;;5.97;;
26269;SDS011;15937;50.612;6.656;2024-02-26T08:31:16;11.23;;;3.40;;
26269;SDS011;15937;50.612;6.656;2024-02-26T08:35:19;10.80;;;4.63;;
26269;SDS011;15937;50.612;6.656;2024-02-26T08:39:21;9.55;;;4.28;;
26269;SDS011;15937;50.612;6.656;2024-02-26T08:43:23;3.47;;;2.77;;
26269;SDS011;15937;50.612;6.656;2024-02-26T08:47:28;5.90;;;3.70;;
26269;SDS011;15937;50.612;6.656;2024-02-26T08:51:31;10.10;;;4.05;;
26269;SDS011;15937;50.612;6.656;2024-02-26T08:55:33;9.13;;;4.28;;
26269;SDS011;15937;50.612;6.656;2024-02-26T08:59:35;10.35;;;3.30;;
26269;SDS011;15937;50.612;6.656;2024-02-26T09:03:37;11.48;;;4.88;;
26269;SDS011;15937;50.612;6.656;2024-02-26T09:07:39;18.23;;;8.70;;
26269;SDS011;15937;50.612;6.656;2024-02-26T09:11:41;7.87;;;4.80;;
26269;SDS011;15937;50.612;6.656;2024-02-26T09:15:44;14.50;;;8.33;;
26269;SDS011;15937;50.612;6.656;2024-02-26T09:19:46;7.03;;;4.28;;
26269;SDS011;15937;50.612;6.656;2024-02-26T09:23:48;3.75;;;2.53;;
26269;SDS011;15937;50.612;6.656;2024-02-26T09:27:54;3.70;;;2.50;;
26269;SDS011;15937;50.612;6.656;2024-02-26T09:31:56;3.20;;;2.30;;
26269;SDS011;15937;50.612;6.656;2024-02-26T09:36:00;3.65;;;2.13;;
26269;SDS011;15937;50.612;6.656;2024-02-26T09:40:03;2.30;;;2.10;;
26269;SDS011;15937;50.612;6.656;2024-02-26T09:44:07;3.00;;;2.42;;
26269;SDS011;15937;50.612;6.656;2024-02-26T09:48:15;6.80;;;2.33;;
26269;SDS011;15937;50.612;6.656;2024-02-26T09:52:22;4.22;;;2.58;;
26269;SDS011;15937;50.612;6.656;2024-02-26T09:56:25;2.60;;;2.38;;
26269;SDS011;15937;50.612;6.656;2024-02-26T10:00:28;2.45;;;2.22;;
26269;SDS011;15937;50.612;6.656;2024-02-26T10:04:35;6.43;;;3.67;;
26269;SDS011;15937;50.612;6.656;2024-02-26T10:08:38;3.03;;;2.70;;
26269;SDS011;15937;50.612;6.656;2024-02-26T10:16:43;4.90;;;3.35;;
26269;SDS011;15937;50.612;6.656;2024-02-26T10:20:58;3.33;;;2.88;;
26269;SDS011;15937;50.612;6.656;2024-02-26T10:25:03;10.00;;;5.40;;
26269;SDS011;15937;50.612;6.656;2024-02-26T10:29:06;8.25;;;4.60;;
26269;SDS011;15937;50.612;6.656;2024-02-26T10:33:10;8.23;;;4.75;;
26269;SDS011;15937;50.612;6.656;2024-02-26T10:37:12;8.20;;;4.37;;
26269;SDS011;15937;50.612;6.656;2024-02-26T10:41:15;4.03;;;3.10;;
26269;SDS011;15937;50.612;6.656;2024-02-26T10:45:17;4.00;;;3.00;;
26269;SDS011;15937;50.612;6.656;2024-02-26T10:49:20;3.83;;;2.75;;
26269;SDS011;15937;50.612;6.656;2024-02-26T10:53:23;4.53;;;2.92;;
26269;SDS011;15937;50.612;6.656;2024-02-26T10:57:32;7.05;;;4.28;;
26269;SDS011;15937;50.612;6.656;2024-02-26T11:01:47;8.05;;;4.43;;
26269;SDS011;15937;50.612;6.656;2024-02-26T11:05:51;5.38;;;3.53;;
26269;SDS011;15937;50.612;6.656;2024-02-26T11:09:53;8.02;;;3.25;;
26269;SDS011;15937;50.612;6.656;2024-02-26T11:13:56;5.30;;;3.35;;
26269;SDS011;15937;50.612;6.656;2024-02-26T11:18:00;4.10;;;3.15;;
26269;SDS011;15937;50.612;6.656;2024-02-26T11:22:03;6.60;;;3.65;;
26269;SDS011;15937;50.612;6.656;2024-02-26T11:26:21;4.63;;;3.53;;
26269;SDS011;15937;50.612;6.656;2024-02-26T11:30:25;4.00;;;3.40;;
26269;SDS011;15937;50.612;6.656;2024-02-26T11:34:29;4.07;;;3.05;;
26269;SDS011;15937;50.612;6.656;2024-02-26T11:38:32;5.20;;;3.77;;
26269;SDS011;15937;50.612;6.656;2024-02-26T11:42:34;5.53;;;3.55;;
26269;SDS011;15937;50.612;6.656;2024-02-26T11:46:46;10.18;;;3.80;;
26269;SDS011;15937;50.612;6.656;2024-02-26T11:50:49;5.40;;;3.42;;
26269;SDS011;15937;50.612;6.656;2024-02-26T11:54:56;5.28;;;3.83;;
26269;SDS011;15937;50.612;6.656;2024-02-26T11:58:59;7.03;;;4.37;;
26269;SDS011;15937;50.612;6.656;2024-02-26T12:03:03;6.75;;;3.95;;
26269;SDS011;15937;50.612;6.656;2024-02-26T12:07:10;9.57;;;3.70;;
26269;SDS011;15937;50.612;6.656;2024-02-26T12:11:14;6.22;;;4.25;;
26269;SDS011;15937;50.612;6.656;2024-02-26T12:15:18;5.10;;;3.38;;
26269;SDS011;15937;50.612;6.656;2024-02-26T12:19:23;7.25;;;4.10;;
26269;SDS011;15937;50.612;6.656;2024-02-26T12:23:25;5.65;;;3.60;;
26269;SDS011;15937;50.612;6.656;2024-02-26T12:27:29;8.10;;;3.38;;
26269;SDS011;15937;50.612;6.656;2024-02-26T12:31:32;11.95;;;4.38;;
26269;SDS011;15937;50.612;6.656;2024-02-26T12:39:37;7.55;;;3.28;;
26269;SDS011;15937;50.612;6.656;2024-02-26T12:47:47;12.30;;;4.40;;
26269;SDS011;15937;50.612;6.656;2024-02-26T12:51:52;7.15;;;3.28;;
26269;SDS011;15937;50.612;6.656;2024-02-26T12:55:54;4.50;;;3.40;;
26269;SDS011;15937;50.612;6.656;2024-02-26T12:59:57;6.07;;;3.80;;
26269;SDS011;15937;50.612;6.656;2024-02-26T13:04:00;4.78;;;3.50;;
26269;SDS011;15937;50.612;6.656;2024-02-26T13:08:08;7.47;;;3.75;;
26269;SDS011;15937;50.612;6.656;2024-02-26T13:12:10;8.75;;;4.53;;
26269;SDS011;15937;50.612;6.656;2024-02-26T13:16:14;5.65;;;3.90;;
26269;SDS011;15937;50.612;6.656;2024-02-26T13:20:29;10.23;;;4.00;;
26269;SDS011;15937;50.612;6.656;2024-02-26T13:24:35;6.53;;;3.95;;
26269;SDS011;15937;50.612;6.656;2024-02-26T13:28:40;6.60;;;3.95;;
26269;SDS011;15937;50.612;6.656;2024-02-26T13:32:42;6.50;;;3.83;;
26269;SDS011;15937;50.612;6.656;2024-02-26T13:36:44;8.20;;;4.17;;
26269;SDS011;15937;50.612;6.656;2024-02-26T13:40:46;8.85;;;4.13;;
26269;SDS011;15937;50.612;6.656;2024-02-26T13:44:49;9.20;;;4.88;;
26269;SDS011;15937;50.612;6.656;2024-02-26T13:48:51;9.15;;;5.15;;
26269;SDS011;15937;50.612;6.656;2024-02-26T13:52:54;8.23;;;5.22;;
26269;SDS011;15937;50.612;6.656;2024-02-26T13:56:57;9.07;;;4.93;;
26269;SDS011;15937;50.612;6.656;2024-02-26T14:01:02;9.05;;;5.88;;
26269;SDS011;15937;50.612;6.656;2024-02-26T14:09:07;9.15;;;5.78;;
26269;SDS011;15937;50.612;6.656;2024-02-26T14:13:09;14.38;;;9.25;;
26269;SDS011;15937;50.612;6.656;2024-02-26T14:17:11;128.43;;;51.88;;
26269;SDS011;15937;50.612;6.656;2024-02-26T14:21:14;70.55;;;31.92;;
26269;SDS011;15937;50.612;6.656;2024-02-26T14:25:16;65.67;;;31.67;;
26269;SDS011;15937;50.612;6.656;2024-02-26T14:29:18;15.30;;;9.20;;
26269;SDS011;15937;50.612;6.656;2024-02-26T14:33:21;12.05;;;6.78;;
26269;SDS011;15937;50.612;6.656;2024-02-26T14:37:24;9.30;;;6.72;;
26269;SDS011;15937;50.612;6.656;2024-02-26T14:41:26;9.57;;;5.80;;
26269;SDS011;15937;50.612;6.656;2024-02-26T14:45:29;15.75;;;8.23;;
26269;SDS011;15937;50.612;6.656;2024-02-26T14:49:31;19.45;;;11.10;;
26269;SDS011;15937;50.612;6.656;2024-02-26T14:53:33;27.77;;;15.45;;
26269;SDS011;15937;50.612;6.656;2024-02-26T15:01:39;48.13;;;25.40;;
26269;SDS011;15937;50.612;6.656;2024-02-26T15:05:40;43.15;;;23.25;;
26269;SDS011;15937;50.612;6.656;2024-02-26T15:09:43;16.92;;;4.80;;
26269;SDS011;15937;50.612;6.656;2024-02-26T15:13:45;7.50;;;4.28;;
26269;SDS011;15937;50.612;6.656;2024-02-26T15:17:47;9.80;;;4.30;;
26269;SDS011;15937;50.612;6.656;2024-02-26T15:21:51;8.10;;;4.32;;
26269;SDS011;15937;50.612;6.656;2024-02-26T15:25:53;5.43;;;4.03;;
26269;SDS011;15937;50.612;6.656;2024-02-26T15:29:55;7.70;;;4.10;;
26269;SDS011;15937;50.612;6.656;2024-02-26T15:34:00;6.72;;;4.15;;
26269;SDS011;15937;50.612;6.656;2024-02-26T15:38:03;10.82;;;5.50;;
26269;SDS011;15937;50.612;6.656;2024-02-26T15:42:06;11.98;;;4.82;;
26269;SDS011;15937;50.612;6.656;2024-02-26T15:46:08;15.48;;;6.90;;
26269;SDS011;15937;50.612;6.656;2024-02-26T15:50:10;10.85;;;5.40;;
26269;SDS011;15937;50.612;6.656;2024-02-26T15:54:13;13.70;;;6.82;;
26269;SDS011;15937;50.612;6.656;2024-02-26T15:58:15;11.75;;;7.20;;
26269;SDS011;15937;50.612;6.656;2024-02-26T16:02:17;11.73;;;6.53;;
26269;SDS011;15937;50.612;6.656;2024-02-26T16:06:25;11.18;;;5.55;;
26269;SDS011;15937;50.612;6.656;2024-02-26T16:10:38;6.93;;;4.57;;
26269;SDS011;15937;50.612;6.656;2024-02-26T16:14:45;8.82;;;5.70;;
26269;SDS011;15937;50.612;6.656;2024-02-26T16:18:51;11.75;;;5.35;;
26269;SDS011;15937;50.612;6.656;2024-02-26T16:22:56;9.95;;;5.50;;
26269;SDS011;15937;50.612;6.656;2024-02-26T16:27:06;10.55;;;6.20;;
26269;SDS011;15937;50.612;6.656;2024-02-26T16:31:08;11.90;;;7.10;;
26269;SDS011;15937;50.612;6.656;2024-02-26T16:35:12;10.00;;;6.30;;
26269;SDS011;15937;50.612;6.656;2024-02-26T16:39:15;12.68;;;6.32;;
26269;SDS011;15937;50.612;6.656;2024-02-26T16:43:18;12.20;;;7.13;;
26269;SDS011;15937;50.612;6.656;2024-02-26T16:47:20;13.70;;;6.53;;
26269;SDS011;15937;50.612;6.656;2024-02-26T16:51:22;17.85;;;7.18;;
26269;SDS011;15937;50.612;6.656;2024-02-26T16:55:24;11.33;;;6.20;;
26269;SDS011;15937;50.612;6.656;2024-02-26T16:59:29;23.33;;;7.50;;
26269;SDS011;15937;50.612;6.656;2024-02-26T17:03:31;15.30;;;6.93;;
26269;SDS011;15937;50.612;6.656;2024-02-26T17:07:33;18.75;;;7.20;;
26269;SDS011;15937;50.612;6.656;2024-02-26T17:11:36;19.40;;;8.63;;
26269;SDS011;15937;50.612;6.656;2024-02-26T17:15:40;20.02;;;7.80;;
26269;SDS011;15937;50.612;6.656;2024-02-26T17:19:44;17.00;;;8.75;;
26269;SDS011;15937;50.612;6.656;2024-02-26T17:23:46;17.63;;;9.93;;
26269;SDS011;15937;50.612;6.656;2024-02-26T17:27:48;20.43;;;8.47;;
26269;SDS011;15937;50.612;6.656;2024-02-26T17:31:50;17.23;;;9.63;;
26269;SDS011;15937;50.612;6.656;2024-02-26T17:35:54;21.73;;;9.68;;
26269;SDS011;15937;50.612;6.656;2024-02-26T17:39:56;23.30;;;10.50;;
26269;SDS011;15937;50.612;6.656;2024-02-26T17:43:58;29.08;;;10.85;;
26269;SDS011;15937;50.612;6.656;2024-02-26T17:48:01;26.13;;;11.32;;
26269;SDS011;15937;50.612;6.656;2024-02-26T17:52:03;32.67;;;10.98;;
26269;SDS011;15937;50.612;6.656;2024-02-26T17:56:06;70.85;;;13.55;;
26269;SDS011;15937;50.612;6.656;2024-02-26T18:00:09;41.75;;;13.85;;
26269;SDS011;15937;50.612;6.656;2024-02-26T18:04:12;39.53;;;13.63;;
26269;SDS011;15937;50.612;6.656;2024-02-26T18:08:15;27.10;;;13.63;;
26269;SDS011;15937;50.612;6.656;2024-02-26T18:12:23;58.75;;;21.35;;
26269;SDS011;15937;50.612;6.656;2024-02-26T18:16:26;49.47;;;19.27;;
26269;SDS011;15937;50.612;6.656;2024-02-26T18:20:29;38.97;;;18.58;;
26269;SDS011;15937;50.612;6.656;2024-02-26T18:24:31;32.37;;;16.87;;
26269;SDS011;15937;50.612;6.656;2024-02-26T18:28:33;51.35;;;20.88;;
26269;SDS011;15937;50.612;6.656;2024-02-26T18:32:35;51.43;;;20.50;;
26269;SDS011;15937;50.612;6.656;2024-02-26T18:36:41;41.20;;;17.70;;
26269;SDS011;15937;50.612;6.656;2024-02-26T18:40:46;25.98;;;13.70;;
26269;SDS011;15937;50.612;6.656;2024-02-26T18:44:49;25.80;;;15.30;;
26269;SDS011;15937;50.612;6.656;2024-02-26T18:48:51;37.22;;;17.77;;
26269;SDS011;15937;50.612;6.656;2024-02-26T18:52:54;43.67;;;18.73;;
26269;SDS011;15937;50.612;6.656;2024-02-26T18:57:00;31.38;;;15.48;;
26269;SDS011;15937;50.612;6.656;2024-02-26T19:01:03;31.42;;;15.40;;
26269;SDS011;15937;50.612;6.656;2024-02-26T19:05:05;30.73;;;17.92;;
26269;SDS011;15937;50.612;6.656;2024-02-26T19:09:09;39.20;;;15.98;;
26269;SDS011;15937;50.612;6.656;2024-02-26T19:13:11;36.60;;;17.23;;
26269;SDS011;15937;50.612;6.656;2024-02-26T19:17:13;27.40;;;15.77;;
26269;SDS011;15937;50.612;6.656;2024-02-26T19:21:15;30.10;;;12.60;;
26269;SDS011;15937;50.612;6.656;2024-02-26T19:25:18;29.73;;;13.10;;
26269;SDS011;15937;50.612;6.656;2024-02-26T19:29:20;25.08;;;13.13;;
26269;SDS011;15937;50.612;6.656;2024-02-26T19:33:23;28.38;;;13.50;;
26269;SDS011;15937;50.612;6.656;2024-02-26T19:37:26;24.07;;;13.13;;
26269;SDS011;15937;50.612;6.656;2024-02-26T19:45:30;19.45;;;11.63;;
26269;SDS011;15937;50.612;6.656;2024-02-26T19:49:32;19.17;;;11.38;;
26269;SDS011;15937;50.612;6.656;2024-02-26T19:53:35;20.17;;;10.43;;
26269;SDS011;15937;50.612;6.656;2024-02-26T19:57:38;18.55;;;9.65;;
26269;SDS011;15937;50.612;6.656;2024-02-26T20:01:40;21.85;;;10.35;;
26269;SDS011;15937;50.612;6.656;2024-02-26T20:05:43;23.35;;;9.13;;
26269;SDS011;15937;50.612;6.656;2024-02-26T20:09:45;17.48;;;8.48;;
26269;SDS011;15937;50.612;6.656;2024-02-26T20:17:50;15.43;;;8.68;;
26269;SDS011;15937;50.612;6.656;2024-02-26T20:21:53;20.80;;;9.30;;
26269;SDS011;15937;50.612;6.656;2024-02-26T20:25:55;18.55;;;9.98;;
26269;SDS011;15937;50.612;6.656;2024-02-26T20:30:00;17.60;;;9.57;;
26269;SDS011;15937;50.612;6.656;2024-02-26T20:34:02;14.48;;;9.65;;
26269;SDS011;15937;50.612;6.656;2024-02-26T20:38:06;16.85;;;8.60;;
26269;SDS011;15937;50.612;6.656;2024-02-26T20:42:10;15.30;;;9.02;;
26269;SDS011;15937;50.612;6.656;2024-02-26T20:46:12;18.63;;;9.93;;
26269;SDS011;15937;50.612;6.656;2024-02-26T20:50:14;17.92;;;9.95;;
26269;SDS011;15937;50.612;6.656;2024-02-26T20:54:16;19.38;;;10.07;;
26269;SDS011;15937;50.612;6.656;2024-02-26T21:02:21;17.23;;;10.20;;
26269;SDS011;15937;50.612;6.656;2024-02-26T21:06:37;19.52;;;10.75;;
26269;SDS011;15937;50.612;6.656;2024-02-26T21:10:40;16.48;;;10.48;;
26269;SDS011;15937;50.612;6.656;2024-02-26T21:14:43;21.77;;;9.85;;
26269;SDS011;15937;50.612;6.656;2024-02-26T21:18:45;18.92;;;10.85;;
26269;SDS011;15937;50.612;6.656;2024-02-26T21:22:48;17.25;;;11.25;;
26269;SDS011;15937;50.612;6.656;2024-02-26T21:26:51;25.95;;;11.75;;
26269;SDS011;15937;50.612;6.656;2024-02-26T21:30:53;26.70;;;13.20;;
26269;SDS011;15937;50.612;6.656;2024-02-26T21:34:58;33.83;;;16.27;;
26269;SDS011;15937;50.612;6.656;2024-02-26T21:39:01;39.47;;;16.45;;
26269;SDS011;15937;50.612;6.656;2024-02-26T21:43:04;44.65;;;17.80;;
26269;SDS011;15937;50.612;6.656;2024-02-26T21:47:07;38.10;;;16.95;;
26269;SDS011;15937;50.612;6.656;2024-02-26T21:51:12;26.75;;;13.18;;
26269;SDS011;15937;50.612;6.656;2024-02-26T21:55:14;17.73;;;9.68;;
26269;SDS011;15937;50.612;6.656;2024-02-26T21:59:19;13.70;;;7.72;;
26269;SDS011;15937;50.612;6.656;2024-02-26T22:03:21;28.67;;;10.95;;
26269;SDS011;15937;50.612;6.656;2024-02-26T22:07:23;29.00;;;11.90;;
26269;SDS011;15937;50.612;6.656;2024-02-26T22:11:28;14.65;;;8.95;;
26269;SDS011;15937;50.612;6.656;2024-02-26T22:15:30;11.63;;;7.85;;
26269;SDS011;15937;50.612;6.656;2024-02-26T22:19:32;19.38;;;8.23;;
26269;SDS011;15937;50.612;6.656;2024-02-26T22:23:34;14.80;;;8.45;;
26269;SDS011;15937;50.612;6.656;2024-02-26T22:27:36;15.27;;;8.70;;
26269;SDS011;15937;50.612;6.656;2024-02-26T22:31:39;12.98;;;7.32;;
26269;SDS011;15937;50.612;6.656;2024-02-26T22:35:41;12.98;;;7.47;;
26269;SDS011;15937;50.612;6.656;2024-02-26T22:39:44;11.38;;;6.50;;
26269;SDS011;15937;50.612;6.656;2024-02-26T22:43:46;14.67;;;7.10;;
26269;SDS011;15937;50.612;6.656;2024-02-26T22:47:48;25.92;;;11.40;;
26269;SDS011;15937;50.612;6.656;2024-02-26T22:51:50;17.38;;;8.73;;
26269;SDS011;15937;50.612;6.656;2024-02-26T22:55:52;12.15;;;7.57;;
26269;SDS011;15937;50.612;6.656;2024-02-26T22:59:54;16.67;;;7.95;;
26269;SDS011;15937;50.612;6.656;2024-02-26T23:03:56;11.35;;;7.57;;
26269;SDS011;15937;50.612;6.656;2024-02-26T23:07:58;18.70;;;8.63;;
26269;SDS011;15937;50.612;6.656;2024-02-26T23:12:01;11.10;;;7.25;;
26269;SDS011;15937;50.612;6.656;2024-02-26T23:16:04;14.43;;;8.67;;
26269;SDS011;15937;50.612;6.656;2024-02-26T23:20:06;16.10;;;9.53;;
26269;SDS011;15937;50.612;6.656;2024-02-26T23:24:10;19.63;;;9.93;;
26269;SDS011;15937;50.612;6.656;2024-02-26T23:28:13;20.67;;;9.85;;
26269;SDS011;15937;50.612;6.656;2024-02-26T23:32:15;24.30;;;12.18;;
26269;SDS011;15937;50.612;6.656;2024-02-26T23:36:17;24.20;;;12.83;;
26269;SDS011;15937;50.612;6.656;2024-02-26T23:40:19;23.88;;;13.75;;
26269;SDS011;15937;50.612;6.656;2024-02-26T23:44:21;17.90;;;9.32;;
26269;SDS011;15937;50.612;6.656;2024-02-26T23:48:24;23.77;;;12.70;;
26269;SDS011;15937;50.612;6.656;2024-02-26T23:52:26;21.90;;;13.13;;
26269;SDS011;15937;50.612;6.656;2024-02-26T23:56:28;23.55;;;13.13;;
